Weather at Nha Trang Air Base [CLOSED]

Public forecast

Using degrees Celsius for public forecast. Weather courtesy of forecast.io.

Closest aviation weather report (METAR) to Nha Trang Air Base

Closest report is Cam Ranh International Airport / Cam Ranh Air Base, 13.9 nm (25.7 km) S.

2024/06/23 04:30 (retrieved 21 minutes ago)

VVCR 230430Z 23011KT 9999 FEW015 BKN060 32/23 Q1006 NOSIG

Closest aviation forecast (TAF) to Nha Trang Air Base

Forecast is more than 6 hours old.

Closest forecast is Yangon International Airport, 808.9 nm (1,498.0 km) WNW.

2024/06/22 18:36 (retrieved 10 hours ago)

TAF VYYY 221700Z 2218/2318 23006KT 7000 BKN015 FEW020CB BKN090 TEMPO 2218/2224 14006KT 5000 -RA BKN012 FEW020CB OVC090